createdAt,value
2018-12-21T00:00:23.525Z,100958.44
2018-12-21T00:05:26.530Z,100963.80
2018-12-21T00:10:29.364Z,100961.45
2018-12-21T00:15:32.089Z,100955.19
2018-12-21T00:20:35.014Z,100953.64
2018-12-21T00:25:37.743Z,100949.45
2018-12-21T00:30:40.271Z,100951.30
2018-12-21T00:35:48.779Z,100948.80
2018-12-21T00:40:57.515Z,100938.13
2018-12-21T00:46:05.418Z,100933.52
2018-12-21T00:51:11.109Z,100938.69
2018-12-21T00:56:13.795Z,100939.66
2018-12-21T01:01:16.738Z,100940.30
2018-12-21T01:06:19.733Z,100945.02
2018-12-21T01:11:22.974Z,100945.02
2018-12-21T01:16:25.887Z,100951.08
2018-12-21T01:21:29.485Z,100951.97
2018-12-21T01:26:32.909Z,100955.70
2018-12-21T01:31:35.821Z,100954.81
2018-12-21T01:36:38.842Z,100948.30
2018-12-21T01:41:41.929Z,100947.02
2018-12-21T01:46:44.849Z,100939.58
2018-12-21T01:51:47.798Z,100927.95
2018-12-21T01:56:50.595Z,100922.40
2018-12-21T02:01:53.299Z,100922.40
2018-12-21T02:06:55.952Z,100925.83
2018-12-21T02:11:58.780Z,100911.52
2018-12-21T02:17:01.663Z,100911.52
2018-12-21T02:22:04.567Z,100904.13
2018-12-21T02:27:14.657Z,100900.26
2018-12-21T02:32:17.434Z,100898.36
2018-12-21T02:37:22.069Z,100897.41
2018-12-21T02:42:24.854Z,100893.45
2018-12-21T02:47:27.807Z,100893.25
2018-12-21T02:52:30.637Z,100900.95
2018-12-21T02:57:33.358Z,100896.94
2018-12-21T03:02:36.187Z,100893.98
2018-12-21T03:07:38.993Z,100881.97
2018-12-21T03:12:41.859Z,100879.44
2018-12-21T03:17:44.860Z,100869.11
2018-12-21T03:22:47.383Z,100874.36
2018-12-21T03:27:50.314Z,100869.89
2018-12-21T03:32:53.127Z,100863.19
2018-12-21T03:37:56.013Z,100867.42
2018-12-21T03:42:58.864Z,100863.94
2018-12-21T03:48:01.437Z,100855.24
2018-12-21T03:53:04.355Z,100854.40
2018-12-21T03:58:07.962Z,100849.23
2018-12-21T04:03:10.521Z,100841.48
2018-12-21T04:08:13.392Z,100838.76
2018-12-21T04:13:16.244Z,100838.30
2018-12-21T04:18:19.075Z,100837.31
2018-12-21T04:23:21.873Z,100834.23
2018-12-21T04:28:24.681Z,100830.21
2018-12-21T04:33:27.358Z,100825.38
2018-12-21T04:38:30.158Z,100830.84
2018-12-21T04:43:32.827Z,100830.70
2018-12-21T04:48:35.643Z,100829.41
2018-12-21T04:53:38.284Z,100816.49
2018-12-21T04:58:40.806Z,100824.23
2018-12-21T05:03:43.633Z,100809.22
2018-12-21T05:08:46.513Z,100808.83
2018-12-21T05:13:49.096Z,100807.53
2018-12-21T05:18:52.058Z,100802.87
2018-12-21T05:23:55.046Z,100802.43
2018-12-21T05:28:57.896Z,100796.81
2018-12-21T05:34:00.577Z,100795.06
2018-12-21T05:39:05.162Z,100797.59
2018-12-21T05:44:07.948Z,100792.87
2018-12-21T05:49:10.861Z,100789.45
2018-12-21T05:54:14.072Z,100777.44
2018-12-21T05:59:17.152Z,100767.04
2018-12-21T06:04:20.063Z,100769.92
2018-12-21T06:09:22.912Z,100751.59
2018-12-21T06:14:25.726Z,100732.52
2018-12-21T06:19:28.650Z,100731.55
2018-12-21T06:24:31.463Z,100721.22
2018-12-21T06:29:34.825Z,100706.02
2018-12-21T06:34:37.553Z,100708.54
2018-12-21T06:39:40.354Z,100690.75
2018-12-21T06:44:43.028Z,100689.45
2018-12-21T06:49:45.903Z,100688.04
2018-12-21T06:54:48.936Z,100685.45
2018-12-21T06:59:51.924Z,100691.31
2018-12-21T07:04:54.683Z,100683.95
2018-12-21T07:09:57.509Z,100667.05
2018-12-21T07:15:00.485Z,100660.53
2018-12-21T07:20:04.004Z,100653.55
2018-12-21T07:25:08.334Z,100652.62
2018-12-21T07:30:11.867Z,100661.15
2018-12-21T07:35:16.773Z,100654.30
2018-12-21T07:40:19.750Z,100647.70
2018-12-21T07:45:22.676Z,100641.25
2018-12-21T07:50:25.484Z,100633.78
2018-12-21T07:55:28.258Z,100626.42
2018-12-21T08:00:31.179Z,100624.34
2018-12-21T08:05:34.074Z,100620.86
2018-12-21T08:10:36.852Z,100617.59
2018-12-21T08:15:39.686Z,100609.77
2018-12-21T08:20:42.686Z,100606.70
2018-12-21T08:25:45.344Z,100594.27
2018-12-21T08:30:48.426Z,100578.66
2018-12-21T08:35:51.202Z,100578.48
2018-12-21T08:40:54.314Z,100562.08
2018-12-21T08:45:57.301Z,100549.53
2018-12-21T08:51:00.334Z,100546.04
2018-12-21T08:56:03.222Z,100556.77
2018-12-21T09:01:07.261Z,100551.73
2018-12-21T09:06:18.249Z,100562.52
2018-12-21T09:11:15.204Z,100544.75
2018-12-21T09:16:18.169Z,100549.13
2018-12-21T09:21:20.961Z,100541.02
2018-12-21T09:26:23.811Z,100521.39
2018-12-21T09:31:28.787Z,100516.05
2018-12-21T09:36:32.797Z,100503.33
2018-12-21T09:41:35.632Z,100483.77
2018-12-21T09:46:38.576Z,100468.95
2018-12-21T09:51:41.490Z,100463.14
2018-12-21T09:56:44.415Z,100459.86
2018-12-21T10:01:47.458Z,100445.00
2018-12-21T10:06:50.248Z,100439.47
2018-12-21T10:11:53.090Z,100423.63
2018-12-21T10:16:55.980Z,100407.47
2018-12-21T10:21:58.864Z,100383.72
2018-12-21T10:27:01.590Z,100380.98
2018-12-21T10:32:04.533Z,100366.64
2018-12-21T10:37:08.509Z,100354.92
2018-12-21T10:42:11.440Z,100339.67
2018-12-21T10:47:14.398Z,100321.67
2018-12-21T10:52:17.291Z,100321.86
2018-12-21T10:57:20.270Z,100303.21
2018-12-21T11:02:23.266Z,100278.16
2018-12-21T11:07:26.164Z,100269.45
2018-12-21T11:12:28.842Z,100250.42
2018-12-21T11:17:31.689Z,100245.54
2018-12-21T11:22:34.451Z,100221.78
2018-12-21T11:27:37.513Z,100211.88
2018-12-21T11:32:41.177Z,100191.92
2018-12-21T11:37:44.013Z,100182.29
2018-12-21T11:42:46.897Z,100157.61
2018-12-21T11:48:11.394Z,100146.80
2018-12-21T11:53:15.257Z,100123.66
2018-12-21T11:58:18.140Z,100100.11
2018-12-21T12:03:21.208Z,100103.33
2018-12-21T12:08:24.052Z,100092.77
2018-12-21T12:13:26.948Z,100088.09
2018-12-21T12:18:29.713Z,100098.24
2018-12-21T12:25:40.928Z,100100.38
2018-12-21T12:30:43.788Z,100081.04
2018-12-21T12:35:46.666Z,100059.87
2018-12-21T12:40:49.633Z,100065.59
2018-12-21T12:45:52.668Z,100054.26
2018-12-21T12:50:55.571Z,100031.88
2018-12-21T12:55:58.478Z,100017.47
2018-12-21T13:01:01.196Z,100022.81
2018-12-21T13:06:05.388Z,100010.54
2018-12-21T13:16:23.291Z,99980.26
2018-12-21T13:21:26.446Z,99969.36
2018-12-21T13:26:29.325Z,99945.82
2018-12-21T13:31:32.258Z,99932.05
2018-12-21T13:36:36.586Z,99910.27
2018-12-21T13:41:39.609Z,99893.53
2018-12-21T13:46:42.521Z,99876.00
2018-12-21T13:51:45.514Z,99872.21
2018-12-21T13:56:48.317Z,99861.86
2018-12-21T14:01:51.226Z,99856.23
2018-12-21T14:06:54.023Z,99841.63
2018-12-21T14:11:56.906Z,99844.39
2018-12-21T14:16:59.838Z,99831.28
2018-12-21T14:22:02.737Z,99819.48
2018-12-21T14:27:05.872Z,99811.72
2018-12-21T14:32:08.675Z,99808.67
2018-12-21T14:37:11.421Z,99790.78
2018-12-21T14:42:14.214Z,99783.48
2018-12-21T14:47:16.988Z,99768.97
2018-12-21T14:52:19.684Z,99745.07
2018-12-21T14:57:22.474Z,99732.60
2018-12-21T15:02:25.892Z,99720.13
2018-12-21T15:07:28.872Z,99701.66
2018-12-21T15:12:31.571Z,99687.93
2018-12-21T15:17:34.368Z,99690.61
2018-12-21T15:22:37.232Z,99675.46
2018-12-21T15:27:39.906Z,99671.13
2018-12-21T15:32:42.900Z,99648.65
2018-12-21T15:37:45.894Z,99638.30
2018-12-21T15:42:48.662Z,99633.63
2018-12-21T15:47:51.415Z,99624.82
2018-12-21T15:52:54.227Z,99610.14
2018-12-21T15:57:58.128Z,99598.13
2018-12-21T16:03:03.022Z,99592.41
2018-12-21T16:08:06.111Z,99588.53
2018-12-21T16:13:08.914Z,99588.41
2018-12-21T16:18:11.606Z,99584.89
2018-12-21T16:23:21.161Z,99561.98
2018-12-21T16:28:23.965Z,99544.03
2018-12-21T16:33:26.779Z,99521.22
2018-12-21T16:38:29.596Z,99522.78
2018-12-21T16:43:32.485Z,99520.90
2018-12-21T16:48:35.578Z,99506.11
2018-12-21T16:53:38.237Z,99503.03
2018-12-21T16:58:40.983Z,99500.45
2018-12-21T17:03:43.786Z,99501.73
2018-12-21T17:08:46.885Z,99478.36
2018-12-21T17:13:49.882Z,99463.21
2018-12-21T17:18:52.888Z,99455.36
2018-12-21T17:23:55.728Z,99453.56
2018-12-21T17:28:58.313Z,99440.30
2018-12-21T17:34:01.242Z,99431.34
2018-12-21T17:39:07.040Z,99424.88
2018-12-21T17:44:10.295Z,99415.59
2018-12-21T17:49:14.866Z,99419.74
2018-12-21T17:59:27.071Z,99406.11
2018-12-21T18:04:30.450Z,99389.90
2018-12-21T18:09:35.507Z,99390.77
2018-12-21T18:14:38.429Z,99391.13
2018-12-21T18:19:41.229Z,99379.31
2018-12-21T18:24:47.166Z,99383.81
2018-12-21T18:29:49.954Z,99372.08
2018-12-21T18:34:53.093Z,99393.89
2018-12-21T18:39:55.981Z,99379.44
2018-12-21T18:44:59.545Z,99381.59
2018-12-21T18:50:02.437Z,99378.41
2018-12-21T18:55:07.761Z,99376.21
2018-12-21T19:00:14.087Z,99373.02
2018-12-21T19:05:16.946Z,99367.84
2018-12-21T19:10:20.854Z,99368.42
2018-12-21T19:15:25.917Z,99374.05
2018-12-21T19:20:28.680Z,99371.81
2018-12-21T19:25:31.615Z,99370.51
2018-12-21T19:30:34.687Z,99363.05
2018-12-21T19:35:37.781Z,99363.72
2018-12-21T19:40:40.831Z,99368.63
2018-12-21T19:45:43.954Z,99371.06
2018-12-21T19:50:46.886Z,99368.69
2018-12-21T19:56:16.197Z,99374.31
2018-12-21T20:01:19.171Z,99369.27
2018-12-21T20:06:21.820Z,99361.59
2018-12-21T20:11:24.621Z,99356.39
2018-12-21T20:16:27.560Z,99348.87
2018-12-21T20:21:30.324Z,99349.22
2018-12-21T20:26:33.104Z,99344.23
2018-12-21T20:31:37.211Z,99360.38
2018-12-21T20:36:40.123Z,99358.31
2018-12-21T20:41:43.346Z,99357.77
2018-12-21T20:46:46.352Z,99358.56
2018-12-21T20:51:49.383Z,99349.89
2018-12-21T20:56:59.137Z,99350.19
2018-12-21T21:02:01.980Z,99357.83
2018-12-21T21:07:04.865Z,99359.69
2018-12-21T21:12:07.564Z,99377.23
2018-12-21T21:17:10.544Z,99378.61
2018-12-21T21:22:13.383Z,99388.03
2018-12-21T21:27:16.012Z,99396.12
2018-12-21T21:32:18.843Z,99387.10
2018-12-21T21:37:21.770Z,99391.17
2018-12-21T21:42:24.470Z,99398.02
2018-12-21T21:47:28.373Z,99396.41
2018-12-21T21:52:31.164Z,99385.20
2018-12-21T21:57:39.207Z,99384.25
2018-12-21T22:02:38.940Z,99388.48
2018-12-21T22:07:41.831Z,99398.17
2018-12-21T22:12:44.561Z,99400.06
2018-12-21T22:17:47.279Z,99405.55
2018-12-21T22:22:50.089Z,99407.84
2018-12-21T22:27:53.108Z,99418.41
2018-12-21T22:32:56.026Z,99420.49
2018-12-21T22:37:58.786Z,99415.45
2018-12-21T22:43:01.538Z,99422.89
2018-12-21T22:48:04.403Z,99421.09
2018-12-21T22:53:07.263Z,99455.88
2018-12-21T22:58:10.322Z,99446.83
2018-12-21T23:03:12.888Z,99464.71
2018-12-21T23:08:15.820Z,99468.44
2018-12-21T23:13:21.208Z,99483.52
2018-12-21T23:18:26.063Z,99482.70
2018-12-21T23:23:29.243Z,99490.62
2018-12-21T23:28:32.302Z,99492.63
2018-12-21T23:33:35.182Z,99490.39
2018-12-21T23:38:37.871Z,99492.52
2018-12-21T23:43:43.355Z,99500.42
2018-12-21T23:48:46.295Z,99504.33
2018-12-21T23:53:49.195Z,99514.13
2018-12-21T23:58:51.893Z,99507.38
